sensor_id;sensor_type;location;lat;lon;timestamp;P1;durP1;ratioP1;P2;durP2;ratioP2
7001;SDS011;3541;53.230;10.518;2023-09-30T00:02:17;11.00;;;3.45;;
7001;SDS011;3541;53.230;10.518;2023-09-30T00:04:43;9.80;;;3.80;;
7001;SDS011;3541;53.230;10.518;2023-09-30T00:07:10;11.10;;;3.42;;
7001;SDS011;3541;53.230;10.518;2023-09-30T00:09:37;8.77;;;3.63;;
7001;SDS011;3541;53.230;10.518;2023-09-30T00:12:04;11.73;;;3.67;;
7001;SDS011;3541;53.230;10.518;2023-09-30T00:14:31;10.70;;;3.33;;
7001;SDS011;3541;53.230;10.518;2023-09-30T00:16:58;11.27;;;3.83;;
7001;SDS011;3541;53.230;10.518;2023-09-30T00:19:25;9.70;;;3.28;;
7001;SDS011;3541;53.230;10.518;2023-09-30T00:21:51;8.10;;;3.53;;
7001;SDS011;3541;53.230;10.518;2023-09-30T00:24:18;12.10;;;3.30;;
7001;SDS011;3541;53.230;10.518;2023-09-30T00:26:44;11.63;;;3.28;;
7001;SDS011;3541;53.230;10.518;2023-09-30T00:29:13;11.20;;;3.95;;
7001;SDS011;3541;53.230;10.518;2023-09-30T00:31:40;9.40;;;3.97;;
7001;SDS011;3541;53.230;10.518;2023-09-30T00:34:06;11.63;;;3.75;;
7001;SDS011;3541;53.230;10.518;2023-09-30T00:36:33;6.00;;;3.03;;
7001;SDS011;3541;53.230;10.518;2023-09-30T00:39:00;8.30;;;3.17;;
7001;SDS011;3541;53.230;10.518;2023-09-30T00:41:26;10.43;;;3.25;;
7001;SDS011;3541;53.230;10.518;2023-09-30T00:43:53;10.43;;;3.90;;
7001;SDS011;3541;53.230;10.518;2023-09-30T00:46:24;8.07;;;3.88;;
7001;SDS011;3541;53.230;10.518;2023-09-30T00:48:53;11.15;;;3.55;;
7001;SDS011;3541;53.230;10.518;2023-09-30T00:51:20;7.88;;;3.33;;
7001;SDS011;3541;53.230;10.518;2023-09-30T00:53:47;8.80;;;3.38;;
7001;SDS011;3541;53.230;10.518;2023-09-30T00:56:14;8.05;;;2.85;;
7001;SDS011;3541;53.230;10.518;2023-09-30T00:58:43;10.15;;;3.58;;
7001;SDS011;3541;53.230;10.518;2023-09-30T01:01:11;9.30;;;2.85;;
7001;SDS011;3541;53.230;10.518;2023-09-30T01:03:39;9.23;;;3.17;;
7001;SDS011;3541;53.230;10.518;2023-09-30T01:06:05;11.18;;;2.80;;
7001;SDS011;3541;53.230;10.518;2023-09-30T01:08:32;8.07;;;3.40;;
7001;SDS011;3541;53.230;10.518;2023-09-30T01:10:59;10.75;;;3.40;;
7001;SDS011;3541;53.230;10.518;2023-09-30T01:13:31;11.25;;;3.15;;
7001;SDS011;3541;53.230;10.518;2023-09-30T01:15:58;7.13;;;2.90;;
7001;SDS011;3541;53.230;10.518;2023-09-30T01:18:28;12.60;;;3.72;;
7001;SDS011;3541;53.230;10.518;2023-09-30T01:20:56;12.25;;;3.72;;
7001;SDS011;3541;53.230;10.518;2023-09-30T01:23:24;10.93;;;3.35;;
7001;SDS011;3541;53.230;10.518;2023-09-30T01:25:51;12.05;;;3.80;;
7001;SDS011;3541;53.230;10.518;2023-09-30T01:28:17;8.45;;;3.55;;
7001;SDS011;3541;53.230;10.518;2023-09-30T01:30:44;10.05;;;3.22;;
7001;SDS011;3541;53.230;10.518;2023-09-30T01:33:11;10.25;;;3.22;;
7001;SDS011;3541;53.230;10.518;2023-09-30T01:35:37;9.65;;;3.42;;
7001;SDS011;3541;53.230;10.518;2023-09-30T01:38:04;12.15;;;3.67;;
7001;SDS011;3541;53.230;10.518;2023-09-30T01:40:32;11.35;;;3.88;;
7001;SDS011;3541;53.230;10.518;2023-09-30T01:42:58;10.20;;;3.50;;
7001;SDS011;3541;53.230;10.518;2023-09-30T01:45:25;13.98;;;4.05;;
7001;SDS011;3541;53.230;10.518;2023-09-30T01:47:52;10.00;;;4.00;;
7001;SDS011;3541;53.230;10.518;2023-09-30T01:50:19;8.93;;;4.15;;
7001;SDS011;3541;53.230;10.518;2023-09-30T01:52:45;11.70;;;3.50;;
7001;SDS011;3541;53.230;10.518;2023-09-30T01:55:12;10.73;;;3.60;;
7001;SDS011;3541;53.230;10.518;2023-09-30T01:57:40;11.38;;;3.97;;
7001;SDS011;3541;53.230;10.518;2023-09-30T02:00:07;10.93;;;3.92;;
7001;SDS011;3541;53.230;10.518;2023-09-30T02:02:35;12.70;;;3.72;;
7001;SDS011;3541;53.230;10.518;2023-09-30T02:05:02;11.48;;;3.60;;
7001;SDS011;3541;53.230;10.518;2023-09-30T02:07:29;8.68;;;3.63;;
7001;SDS011;3541;53.230;10.518;2023-09-30T02:09:56;8.70;;;4.15;;
7001;SDS011;3541;53.230;10.518;2023-09-30T02:12:23;8.65;;;3.25;;
7001;SDS011;3541;53.230;10.518;2023-09-30T02:14:51;10.73;;;4.22;;
7001;SDS011;3541;53.230;10.518;2023-09-30T02:17:17;10.85;;;3.78;;
7001;SDS011;3541;53.230;10.518;2023-09-30T02:19:44;9.73;;;3.85;;
7001;SDS011;3541;53.230;10.518;2023-09-30T02:22:12;12.15;;;3.80;;
7001;SDS011;3541;53.230;10.518;2023-09-30T02:24:38;11.23;;;3.42;;
7001;SDS011;3541;53.230;10.518;2023-09-30T02:27:05;11.80;;;3.63;;
7001;SDS011;3541;53.230;10.518;2023-09-30T02:29:33;9.90;;;3.60;;
7001;SDS011;3541;53.230;10.518;2023-09-30T02:32:01;11.82;;;3.60;;
7001;SDS011;3541;53.230;10.518;2023-09-30T02:34:29;13.50;;;3.67;;
7001;SDS011;3541;53.230;10.518;2023-09-30T02:36:56;12.15;;;4.20;;
7001;SDS011;3541;53.230;10.518;2023-09-30T02:39:25;9.15;;;3.58;;
7001;SDS011;3541;53.230;10.518;2023-09-30T02:41:52;14.98;;;3.33;;
7001;SDS011;3541;53.230;10.518;2023-09-30T02:44:19;12.57;;;3.67;;
7001;SDS011;3541;53.230;10.518;2023-09-30T02:46:45;12.13;;;4.15;;
7001;SDS011;3541;53.230;10.518;2023-09-30T02:49:13;10.93;;;3.83;;
7001;SDS011;3541;53.230;10.518;2023-09-30T02:51:40;10.68;;;3.65;;
7001;SDS011;3541;53.230;10.518;2023-09-30T02:54:06;13.80;;;4.60;;
7001;SDS011;3541;53.230;10.518;2023-09-30T02:56:33;12.77;;;4.20;;
7001;SDS011;3541;53.230;10.518;2023-09-30T02:58:59;10.30;;;4.00;;
7001;SDS011;3541;53.230;10.518;2023-09-30T03:01:26;14.57;;;4.05;;
7001;SDS011;3541;53.230;10.518;2023-09-30T03:03:53;11.23;;;3.70;;
7001;SDS011;3541;53.230;10.518;2023-09-30T03:06:21;6.32;;;3.42;;
7001;SDS011;3541;53.230;10.518;2023-09-30T03:08:48;9.18;;;3.85;;
7001;SDS011;3541;53.230;10.518;2023-09-30T03:11:14;9.27;;;3.42;;
7001;SDS011;3541;53.230;10.518;2023-09-30T03:13:41;9.98;;;4.20;;
7001;SDS011;3541;53.230;10.518;2023-09-30T03:16:08;14.00;;;4.82;;
7001;SDS011;3541;53.230;10.518;2023-09-30T03:18:35;13.05;;;3.53;;
7001;SDS011;3541;53.230;10.518;2023-09-30T03:21:02;10.43;;;3.55;;
7001;SDS011;3541;53.230;10.518;2023-09-30T03:23:34;15.05;;;4.10;;
7001;SDS011;3541;53.230;10.518;2023-09-30T03:26:03;10.05;;;4.03;;
7001;SDS011;3541;53.230;10.518;2023-09-30T03:28:34;11.70;;;3.63;;
7001;SDS011;3541;53.230;10.518;2023-09-30T03:31:01;14.82;;;5.07;;
7001;SDS011;3541;53.230;10.518;2023-09-30T03:33:29;12.10;;;4.85;;
7001;SDS011;3541;53.230;10.518;2023-09-30T03:35:56;12.27;;;4.07;;
7001;SDS011;3541;53.230;10.518;2023-09-30T03:38:24;12.75;;;4.00;;
7001;SDS011;3541;53.230;10.518;2023-09-30T03:40:53;13.13;;;4.22;;
7001;SDS011;3541;53.230;10.518;2023-09-30T03:43:20;13.35;;;3.83;;
7001;SDS011;3541;53.230;10.518;2023-09-30T03:45:47;12.05;;;3.92;;
7001;SDS011;3541;53.230;10.518;2023-09-30T03:48:15;6.65;;;3.33;;
7001;SDS011;3541;53.230;10.518;2023-09-30T03:50:43;10.55;;;4.72;;
7001;SDS011;3541;53.230;10.518;2023-09-30T03:53:10;10.65;;;3.80;;
7001;SDS011;3541;53.230;10.518;2023-09-30T03:55:36;14.13;;;3.92;;
7001;SDS011;3541;53.230;10.518;2023-09-30T03:58:04;10.18;;;3.80;;
7001;SDS011;3541;53.230;10.518;2023-09-30T04:00:31;10.55;;;3.70;;
7001;SDS011;3541;53.230;10.518;2023-09-30T04:02:57;11.10;;;3.83;;
7001;SDS011;3541;53.230;10.518;2023-09-30T04:05:24;13.95;;;3.58;;
7001;SDS011;3541;53.230;10.518;2023-09-30T04:07:53;12.13;;;4.05;;
7001;SDS011;3541;53.230;10.518;2023-09-30T04:10:20;12.98;;;4.05;;
7001;SDS011;3541;53.230;10.518;2023-09-30T04:12:48;12.65;;;3.75;;
7001;SDS011;3541;53.230;10.518;2023-09-30T04:15:16;8.55;;;3.83;;
7001;SDS011;3541;53.230;10.518;2023-09-30T04:17:43;11.20;;;3.60;;
7001;SDS011;3541;53.230;10.518;2023-09-30T04:20:10;11.93;;;3.90;;
7001;SDS011;3541;53.230;10.518;2023-09-30T04:22:41;7.90;;;3.55;;
7001;SDS011;3541;53.230;10.518;2023-09-30T04:25:11;12.43;;;4.38;;
7001;SDS011;3541;53.230;10.518;2023-09-30T04:27:41;13.18;;;4.18;;
7001;SDS011;3541;53.230;10.518;2023-09-30T04:30:08;10.00;;;3.95;;
7001;SDS011;3541;53.230;10.518;2023-09-30T04:32:37;11.52;;;3.42;;
7001;SDS011;3541;53.230;10.518;2023-09-30T04:35:04;8.32;;;3.70;;
7001;SDS011;3541;53.230;10.518;2023-09-30T04:37:33;12.82;;;3.97;;
7001;SDS011;3541;53.230;10.518;2023-09-30T04:40:01;11.32;;;3.92;;
7001;SDS011;3541;53.230;10.518;2023-09-30T04:42:32;10.88;;;4.35;;
7001;SDS011;3541;53.230;10.518;2023-09-30T04:45:01;10.55;;;3.47;;
7001;SDS011;3541;53.230;10.518;2023-09-30T04:47:29;9.63;;;3.38;;
7001;SDS011;3541;53.230;10.518;2023-09-30T04:49:57;12.85;;;3.78;;
7001;SDS011;3541;53.230;10.518;2023-09-30T04:52:23;9.40;;;4.43;;
7001;SDS011;3541;53.230;10.518;2023-09-30T04:54:52;9.52;;;4.53;;
7001;SDS011;3541;53.230;10.518;2023-09-30T04:57:19;14.82;;;4.20;;
7001;SDS011;3541;53.230;10.518;2023-09-30T04:59:46;14.30;;;3.80;;
7001;SDS011;3541;53.230;10.518;2023-09-30T05:02:13;11.18;;;3.88;;
7001;SDS011;3541;53.230;10.518;2023-09-30T05:04:40;12.80;;;4.13;;
7001;SDS011;3541;53.230;10.518;2023-09-30T05:07:08;7.97;;;3.53;;
7001;SDS011;3541;53.230;10.518;2023-09-30T05:09:35;8.23;;;3.53;;
7001;SDS011;3541;53.230;10.518;2023-09-30T05:12:03;11.73;;;4.40;;
7001;SDS011;3541;53.230;10.518;2023-09-30T05:14:31;16.08;;;4.30;;
7001;SDS011;3541;53.230;10.518;2023-09-30T05:16:58;12.50;;;4.07;;
7001;SDS011;3541;53.230;10.518;2023-09-30T05:19:25;10.30;;;3.72;;
7001;SDS011;3541;53.230;10.518;2023-09-30T05:21:51;13.35;;;3.67;;
7001;SDS011;3541;53.230;10.518;2023-09-30T05:24:19;13.65;;;3.92;;
7001;SDS011;3541;53.230;10.518;2023-09-30T05:26:46;9.57;;;4.50;;
7001;SDS011;3541;53.230;10.518;2023-09-30T05:29:13;9.00;;;3.45;;
7001;SDS011;3541;53.230;10.518;2023-09-30T05:31:39;10.75;;;3.83;;
7001;SDS011;3541;53.230;10.518;2023-09-30T05:34:07;13.07;;;4.30;;
7001;SDS011;3541;53.230;10.518;2023-09-30T05:36:33;8.75;;;3.60;;
7001;SDS011;3541;53.230;10.518;2023-09-30T05:39:01;9.10;;;3.40;;
7001;SDS011;3541;53.230;10.518;2023-09-30T05:41:31;8.90;;;3.88;;
7001;SDS011;3541;53.230;10.518;2023-09-30T05:43:57;11.13;;;4.25;;
7001;SDS011;3541;53.230;10.518;2023-09-30T05:46:24;12.52;;;3.58;;
7001;SDS011;3541;53.230;10.518;2023-09-30T05:48:52;10.95;;;4.20;;
7001;SDS011;3541;53.230;10.518;2023-09-30T05:51:18;10.27;;;3.63;;
7001;SDS011;3541;53.230;10.518;2023-09-30T05:53:45;10.20;;;3.83;;
7001;SDS011;3541;53.230;10.518;2023-09-30T05:56:13;10.90;;;4.32;;
7001;SDS011;3541;53.230;10.518;2023-09-30T05:58:41;11.13;;;3.80;;
7001;SDS011;3541;53.230;10.518;2023-09-30T06:01:08;9.73;;;4.35;;
7001;SDS011;3541;53.230;10.518;2023-09-30T06:03:37;7.78;;;3.35;;
7001;SDS011;3541;53.230;10.518;2023-09-30T06:06:09;9.45;;;3.67;;
7001;SDS011;3541;53.230;10.518;2023-09-30T06:08:37;11.63;;;3.70;;
7001;SDS011;3541;53.230;10.518;2023-09-30T06:11:03;9.13;;;3.03;;
7001;SDS011;3541;53.230;10.518;2023-09-30T06:13:31;12.07;;;4.57;;
7001;SDS011;3541;53.230;10.518;2023-09-30T06:15:59;11.52;;;4.10;;
7001;SDS011;3541;53.230;10.518;2023-09-30T06:18:27;10.10;;;3.75;;
7001;SDS011;3541;53.230;10.518;2023-09-30T06:20:54;10.55;;;3.70;;
7001;SDS011;3541;53.230;10.518;2023-09-30T06:23:20;13.90;;;3.67;;
7001;SDS011;3541;53.230;10.518;2023-09-30T06:25:47;8.13;;;3.17;;
7001;SDS011;3541;53.230;10.518;2023-09-30T06:28:13;9.82;;;3.60;;
7001;SDS011;3541;53.230;10.518;2023-09-30T06:30:40;13.82;;;4.28;;
7001;SDS011;3541;53.230;10.518;2023-09-30T06:33:09;11.88;;;3.80;;
7001;SDS011;3541;53.230;10.518;2023-09-30T06:35:38;12.85;;;4.95;;
7001;SDS011;3541;53.230;10.518;2023-09-30T06:38:15;13.05;;;4.00;;
7001;SDS011;3541;53.230;10.518;2023-09-30T06:40:42;11.95;;;4.05;;
7001;SDS011;3541;53.230;10.518;2023-09-30T06:43:10;9.27;;;3.58;;
7001;SDS011;3541;53.230;10.518;2023-09-30T06:45:36;11.30;;;4.32;;
7001;SDS011;3541;53.230;10.518;2023-09-30T06:48:06;13.32;;;4.03;;
7001;SDS011;3541;53.230;10.518;2023-09-30T06:50:37;12.43;;;3.65;;
7001;SDS011;3541;53.230;10.518;2023-09-30T06:53:05;9.77;;;3.67;;
7001;SDS011;3541;53.230;10.518;2023-09-30T06:55:34;11.73;;;4.40;;
7001;SDS011;3541;53.230;10.518;2023-09-30T06:58:02;10.80;;;3.53;;
7001;SDS011;3541;53.230;10.518;2023-09-30T07:00:32;10.10;;;3.40;;
7001;SDS011;3541;53.230;10.518;2023-09-30T07:02:59;10.17;;;3.77;;
7001;SDS011;3541;53.230;10.518;2023-09-30T07:05:27;14.20;;;4.13;;
7001;SDS011;3541;53.230;10.518;2023-09-30T07:07:54;10.98;;;3.35;;
7001;SDS011;3541;53.230;10.518;2023-09-30T07:10:20;9.85;;;3.60;;
7001;SDS011;3541;53.230;10.518;2023-09-30T07:12:47;12.02;;;3.90;;
7001;SDS011;3541;53.230;10.518;2023-09-30T07:15:14;10.57;;;3.45;;
7001;SDS011;3541;53.230;10.518;2023-09-30T07:17:40;13.07;;;3.42;;
7001;SDS011;3541;53.230;10.518;2023-09-30T07:20:08;8.68;;;3.30;;
7001;SDS011;3541;53.230;10.518;2023-09-30T07:22:37;11.60;;;3.70;;
7001;SDS011;3541;53.230;10.518;2023-09-30T07:25:03;9.32;;;3.50;;
7001;SDS011;3541;53.230;10.518;2023-09-30T07:27:30;18.13;;;4.65;;
7001;SDS011;3541;53.230;10.518;2023-09-30T07:29:57;8.30;;;3.17;;
7001;SDS011;3541;53.230;10.518;2023-09-30T07:32:23;12.00;;;4.15;;
7001;SDS011;3541;53.230;10.518;2023-09-30T07:34:50;11.75;;;4.03;;
7001;SDS011;3541;53.230;10.518;2023-09-30T07:37:17;12.02;;;3.67;;
7001;SDS011;3541;53.230;10.518;2023-09-30T07:39:46;9.32;;;3.67;;
7001;SDS011;3541;53.230;10.518;2023-09-30T07:42:13;11.02;;;3.17;;
7001;SDS011;3541;53.230;10.518;2023-09-30T07:44:40;10.15;;;3.28;;
7001;SDS011;3541;53.230;10.518;2023-09-30T07:47:07;10.70;;;3.45;;
7001;SDS011;3541;53.230;10.518;2023-09-30T07:49:34;8.13;;;3.30;;
7001;SDS011;3541;53.230;10.518;2023-09-30T07:52:01;9.93;;;3.42;;
7001;SDS011;3541;53.230;10.518;2023-09-30T07:54:28;8.75;;;3.30;;
7001;SDS011;3541;53.230;10.518;2023-09-30T07:56:56;8.48;;;3.53;;
7001;SDS011;3541;53.230;10.518;2023-09-30T07:59:24;8.73;;;3.10;;
7001;SDS011;3541;53.230;10.518;2023-09-30T08:01:50;9.02;;;3.38;;
7001;SDS011;3541;53.230;10.518;2023-09-30T08:04:17;10.27;;;3.80;;
7001;SDS011;3541;53.230;10.518;2023-09-30T08:06:44;10.70;;;3.35;;
7001;SDS011;3541;53.230;10.518;2023-09-30T08:09:11;10.55;;;3.72;;
7001;SDS011;3541;53.230;10.518;2023-09-30T08:11:39;12.30;;;3.35;;
7001;SDS011;3541;53.230;10.518;2023-09-30T08:14:07;13.77;;;4.22;;
7001;SDS011;3541;53.230;10.518;2023-09-30T08:16:34;9.95;;;3.33;;
7001;SDS011;3541;53.230;10.518;2023-09-30T08:19:01;9.55;;;3.35;;
7001;SDS011;3541;53.230;10.518;2023-09-30T08:21:28;11.05;;;3.65;;
7001;SDS011;3541;53.230;10.518;2023-09-30T08:23:55;10.52;;;3.08;;
7001;SDS011;3541;53.230;10.518;2023-09-30T08:26:22;8.73;;;2.83;;
7001;SDS011;3541;53.230;10.518;2023-09-30T08:28:49;9.15;;;2.85;;
7001;SDS011;3541;53.230;10.518;2023-09-30T08:31:17;6.95;;;3.17;;
7001;SDS011;3541;53.230;10.518;2023-09-30T08:33:43;10.70;;;3.70;;
7001;SDS011;3541;53.230;10.518;2023-09-30T08:36:10;6.20;;;2.88;;
7001;SDS011;3541;53.230;10.518;2023-09-30T08:38:38;11.23;;;3.28;;
7001;SDS011;3541;53.230;10.518;2023-09-30T08:41:06;7.00;;;2.70;;
7001;SDS011;3541;53.230;10.518;2023-09-30T08:43:33;7.80;;;2.97;;
7001;SDS011;3541;53.230;10.518;2023-09-30T08:46:03;8.05;;;3.00;;
7001;SDS011;3541;53.230;10.518;2023-09-30T08:48:32;9.23;;;3.30;;
7001;SDS011;3541;53.230;10.518;2023-09-30T08:51:00;8.27;;;3.30;;
7001;SDS011;3541;53.230;10.518;2023-09-30T08:53:27;11.75;;;3.25;;
7001;SDS011;3541;53.230;10.518;2023-09-30T08:55:55;7.70;;;2.95;;
7001;SDS011;3541;53.230;10.518;2023-09-30T08:58:24;8.85;;;2.97;;
7001;SDS011;3541;53.230;10.518;2023-09-30T09:00:53;8.40;;;3.42;;
7001;SDS011;3541;53.230;10.518;2023-09-30T09:03:21;8.18;;;2.72;;
7001;SDS011;3541;53.230;10.518;2023-09-30T09:05:54;8.57;;;2.92;;
7001;SDS011;3541;53.230;10.518;2023-09-30T09:08:22;12.02;;;3.47;;
7001;SDS011;3541;53.230;10.518;2023-09-30T09:10:53;10.52;;;3.03;;
7001;SDS011;3541;53.230;10.518;2023-09-30T09:13:21;9.32;;;3.00;;
7001;SDS011;3541;53.230;10.518;2023-09-30T09:15:48;8.25;;;2.70;;
7001;SDS011;3541;53.230;10.518;2023-09-30T09:18:19;7.63;;;3.20;;
7001;SDS011;3541;53.230;10.518;2023-09-30T09:21:08;13.27;;;3.05;;
7001;SDS011;3541;53.230;10.518;2023-09-30T09:23:38;12.55;;;3.40;;
7001;SDS011;3541;53.230;10.518;2023-09-30T09:26:05;9.52;;;3.08;;
7001;SDS011;3541;53.230;10.518;2023-09-30T09:28:33;9.88;;;3.20;;
7001;SDS011;3541;53.230;10.518;2023-09-30T09:31:01;9.68;;;3.10;;
7001;SDS011;3541;53.230;10.518;2023-09-30T09:33:34;6.97;;;2.80;;
7001;SDS011;3541;53.230;10.518;2023-09-30T09:36:01;10.38;;;3.13;;
7001;SDS011;3541;53.230;10.518;2023-09-30T09:38:34;12.70;;;2.70;;
7001;SDS011;3541;53.230;10.518;2023-09-30T09:41:09;9.32;;;2.78;;
7001;SDS011;3541;53.230;10.518;2023-09-30T09:43:36;7.30;;;2.90;;
7001;SDS011;3541;53.230;10.518;2023-09-30T09:46:03;8.75;;;2.40;;
7001;SDS011;3541;53.230;10.518;2023-09-30T09:48:34;9.25;;;3.15;;
7001;SDS011;3541;53.230;10.518;2023-09-30T09:51:01;7.68;;;2.80;;
7001;SDS011;3541;53.230;10.518;2023-09-30T09:53:28;7.85;;;2.83;;
7001;SDS011;3541;53.230;10.518;2023-09-30T09:55:58;8.30;;;2.08;;
7001;SDS011;3541;53.230;10.518;2023-09-30T09:58:26;5.65;;;2.65;;
7001;SDS011;3541;53.230;10.518;2023-09-30T10:00:56;7.22;;;2.53;;
7001;SDS011;3541;53.230;10.518;2023-09-30T10:03:23;4.95;;;2.42;;
7001;SDS011;3541;53.230;10.518;2023-09-30T10:05:50;13.30;;;2.53;;
7001;SDS011;3541;53.230;10.518;2023-09-30T10:08:17;7.43;;;2.75;;
7001;SDS011;3541;53.230;10.518;2023-09-30T10:10:48;7.70;;;2.40;;
7001;SDS011;3541;53.230;10.518;2023-09-30T10:19:15;8.15;;;2.40;;
7001;SDS011;3541;53.230;10.518;2023-09-30T10:24:49;7.32;;;2.33;;
7001;SDS011;3541;53.230;10.518;2023-09-30T10:30:11;11.20;;;2.30;;
7001;SDS011;3541;53.230;10.518;2023-09-30T10:35:44;7.38;;;2.50;;
7001;SDS011;3541;53.230;10.518;2023-09-30T10:41:05;9.32;;;2.55;;
7001;SDS011;3541;53.230;10.518;2023-09-30T10:43:33;8.75;;;2.38;;
7001;SDS011;3541;53.230;10.518;2023-09-30T10:46:03;7.90;;;2.85;;
7001;SDS011;3541;53.230;10.518;2023-09-30T10:48:32;9.23;;;2.65;;
7001;SDS011;3541;53.230;10.518;2023-09-30T10:51:12;7.40;;;2.20;;
7001;SDS011;3541;53.230;10.518;2023-09-30T10:53:43;10.13;;;2.30;;
7001;SDS011;3541;53.230;10.518;2023-09-30T10:56:12;7.55;;;2.50;;
7001;SDS011;3541;53.230;10.518;2023-09-30T10:58:39;4.30;;;2.13;;
7001;SDS011;3541;53.230;10.518;2023-09-30T11:01:08;4.90;;;2.20;;
7001;SDS011;3541;53.230;10.518;2023-09-30T11:03:35;7.38;;;2.15;;
7001;SDS011;3541;53.230;10.518;2023-09-30T11:06:02;9.15;;;3.05;;
7001;SDS011;3541;53.230;10.518;2023-09-30T11:08:29;5.75;;;2.38;;
7001;SDS011;3541;53.230;10.518;2023-09-30T11:10:56;8.57;;;2.65;;
7001;SDS011;3541;53.230;10.518;2023-09-30T11:13:22;12.57;;;2.67;;
7001;SDS011;3541;53.230;10.518;2023-09-30T11:15:59;8.82;;;2.28;;
7001;SDS011;3541;53.230;10.518;2023-09-30T11:18:28;9.13;;;2.55;;
7001;SDS011;3541;53.230;10.518;2023-09-30T11:21:02;10.48;;;2.10;;
7001;SDS011;3541;53.230;10.518;2023-09-30T11:23:30;5.97;;;2.35;;
7001;SDS011;3541;53.230;10.518;2023-09-30T11:25:57;7.15;;;2.40;;
7001;SDS011;3541;53.230;10.518;2023-09-30T11:28:24;7.60;;;2.00;;
7001;SDS011;3541;53.230;10.518;2023-09-30T11:30:53;10.07;;;2.63;;
7001;SDS011;3541;53.230;10.518;2023-09-30T11:33:24;8.90;;;2.30;;
7001;SDS011;3541;53.230;10.518;2023-09-30T11:35:59;6.70;;;2.30;;
7001;SDS011;3541;53.230;10.518;2023-09-30T11:38:27;6.47;;;2.40;;
7001;SDS011;3541;53.230;10.518;2023-09-30T11:41:00;4.60;;;2.15;;
7001;SDS011;3541;53.230;10.518;2023-09-30T11:43:29;7.47;;;2.25;;
7001;SDS011;3541;53.230;10.518;2023-09-30T11:46:05;6.30;;;1.90;;
7001;SDS011;3541;53.230;10.518;2023-09-30T11:48:33;4.43;;;1.92;;
7001;SDS011;3541;53.230;10.518;2023-09-30T11:51:03;4.25;;;1.67;;
7001;SDS011;3541;53.230;10.518;2023-09-30T11:53:30;5.72;;;2.00;;
7001;SDS011;3541;53.230;10.518;2023-09-30T11:55:57;8.32;;;2.05;;
7001;SDS011;3541;53.230;10.518;2023-09-30T11:58:25;7.68;;;2.15;;
7001;SDS011;3541;53.230;10.518;2023-09-30T12:00:55;5.60;;;2.40;;
7001;SDS011;3541;53.230;10.518;2023-09-30T12:03:24;4.05;;;2.05;;
7001;SDS011;3541;53.230;10.518;2023-09-30T12:05:52;5.45;;;2.20;;
7001;SDS011;3541;53.230;10.518;2023-09-30T12:08:21;5.35;;;1.73;;
7001;SDS011;3541;53.230;10.518;2023-09-30T12:10:48;7.18;;;2.22;;
7001;SDS011;3541;53.230;10.518;2023-09-30T12:13:15;6.13;;;1.92;;
7001;SDS011;3541;53.230;10.518;2023-09-30T12:15:41;4.40;;;1.65;;
7001;SDS011;3541;53.230;10.518;2023-09-30T12:18:09;4.13;;;1.90;;
7001;SDS011;3541;53.230;10.518;2023-09-30T12:20:38;5.72;;;2.00;;
7001;SDS011;3541;53.230;10.518;2023-09-30T12:23:06;5.95;;;2.05;;
7001;SDS011;3541;53.230;10.518;2023-09-30T12:25:34;5.85;;;2.13;;
7001;SDS011;3541;53.230;10.518;2023-09-30T12:28:02;5.32;;;1.92;;
7001;SDS011;3541;53.230;10.518;2023-09-30T12:30:29;5.53;;;1.80;;
7001;SDS011;3541;53.230;10.518;2023-09-30T12:32:57;5.43;;;1.90;;
7001;SDS011;3541;53.230;10.518;2023-09-30T12:35:23;4.03;;;2.00;;
7001;SDS011;3541;53.230;10.518;2023-09-30T12:37:50;4.85;;;1.90;;
7001;SDS011;3541;53.230;10.518;2023-09-30T12:40:16;7.32;;;2.00;;
7001;SDS011;3541;53.230;10.518;2023-09-30T12:42:44;7.03;;;2.08;;
7001;SDS011;3541;53.230;10.518;2023-09-30T12:45:12;5.75;;;2.30;;
7001;SDS011;3541;53.230;10.518;2023-09-30T12:47:38;5.15;;;2.25;;
7001;SDS011;3541;53.230;10.518;2023-09-30T12:50:06;9.85;;;2.17;;
7001;SDS011;3541;53.230;10.518;2023-09-30T12:52:34;5.00;;;1.83;;
7001;SDS011;3541;53.230;10.518;2023-09-30T12:55:01;5.60;;;1.90;;
7001;SDS011;3541;53.230;10.518;2023-09-30T12:57:28;4.97;;;2.00;;
7001;SDS011;3541;53.230;10.518;2023-09-30T12:59:55;7.40;;;2.20;;
7001;SDS011;3541;53.230;10.518;2023-09-30T13:02:22;5.80;;;2.08;;
7001;SDS011;3541;53.230;10.518;2023-09-30T13:04:49;6.28;;;2.00;;
7001;SDS011;3541;53.230;10.518;2023-09-30T13:07:16;5.97;;;2.15;;
7001;SDS011;3541;53.230;10.518;2023-09-30T13:09:42;5.80;;;2.10;;
7001;SDS011;3541;53.230;10.518;2023-09-30T13:12:09;4.70;;;1.63;;
7001;SDS011;3541;53.230;10.518;2023-09-30T13:14:36;4.82;;;2.17;;
7001;SDS011;3541;53.230;10.518;2023-09-30T13:17:05;7.18;;;1.60;;
7001;SDS011;3541;53.230;10.518;2023-09-30T13:19:31;5.88;;;2.13;;
7001;SDS011;3541;53.230;10.518;2023-09-30T13:21:58;4.65;;;1.75;;
7001;SDS011;3541;53.230;10.518;2023-09-30T13:24:25;3.75;;;1.77;;
7001;SDS011;3541;53.230;10.518;2023-09-30T13:26:52;5.82;;;2.00;;
7001;SDS011;3541;53.230;10.518;2023-09-30T13:29:19;5.70;;;2.00;;
7001;SDS011;3541;53.230;10.518;2023-09-30T13:31:45;5.25;;;2.10;;
7001;SDS011;3541;53.230;10.518;2023-09-30T13:34:14;5.43;;;2.28;;
7001;SDS011;3541;53.230;10.518;2023-09-30T13:36:41;4.55;;;1.80;;
7001;SDS011;3541;53.230;10.518;2023-09-30T13:39:07;4.88;;;1.70;;
7001;SDS011;3541;53.230;10.518;2023-09-30T13:41:38;6.70;;;2.03;;
7001;SDS011;3541;53.230;10.518;2023-09-30T13:44:04;4.70;;;2.00;;
7001;SDS011;3541;53.230;10.518;2023-09-30T13:46:31;6.47;;;2.13;;
7001;SDS011;3541;53.230;10.518;2023-09-30T13:48:57;5.20;;;2.22;;
7001;SDS011;3541;53.230;10.518;2023-09-30T13:51:25;5.50;;;2.00;;
7001;SDS011;3541;53.230;10.518;2023-09-30T13:53:52;5.20;;;2.15;;
7001;SDS011;3541;53.230;10.518;2023-09-30T13:56:19;4.70;;;1.70;;
7001;SDS011;3541;53.230;10.518;2023-09-30T13:58:46;4.15;;;1.70;;
7001;SDS011;3541;53.230;10.518;2023-09-30T14:01:13;2.95;;;1.60;;
7001;SDS011;3541;53.230;10.518;2023-09-30T14:03:40;4.82;;;1.80;;
7001;SDS011;3541;53.230;10.518;2023-09-30T14:06:09;3.50;;;1.92;;
7001;SDS011;3541;53.230;10.518;2023-09-30T14:08:38;4.57;;;1.90;;
7001;SDS011;3541;53.230;10.518;2023-09-30T14:11:07;4.57;;;1.58;;
7001;SDS011;3541;53.230;10.518;2023-09-30T14:13:34;4.07;;;1.75;;
7001;SDS011;3541;53.230;10.518;2023-09-30T14:16:00;5.40;;;1.98;;
7001;SDS011;3541;53.230;10.518;2023-09-30T14:18:27;6.20;;;2.10;;
7001;SDS011;3541;53.230;10.518;2023-09-30T14:20:53;3.85;;;1.70;;
7001;SDS011;3541;53.230;10.518;2023-09-30T14:23:20;6.60;;;1.88;;
7001;SDS011;3541;53.230;10.518;2023-09-30T14:25:50;3.35;;;1.80;;
7001;SDS011;3541;53.230;10.518;2023-09-30T14:28:19;5.43;;;1.70;;
7001;SDS011;3541;53.230;10.518;2023-09-30T14:30:46;4.80;;;1.95;;
7001;SDS011;3541;53.230;10.518;2023-09-30T14:33:13;3.25;;;1.83;;
7001;SDS011;3541;53.230;10.518;2023-09-30T14:35:39;3.90;;;2.10;;
7001;SDS011;3541;53.230;10.518;2023-09-30T14:38:09;8.95;;;2.72;;
7001;SDS011;3541;53.230;10.518;2023-09-30T14:40:36;2.85;;;1.63;;
7001;SDS011;3541;53.230;10.518;2023-09-30T14:43:06;4.13;;;2.15;;
7001;SDS011;3541;53.230;10.518;2023-09-30T14:45:36;3.92;;;1.95;;
7001;SDS011;3541;53.230;10.518;2023-09-30T14:48:03;3.38;;;1.50;;
7001;SDS011;3541;53.230;10.518;2023-09-30T14:50:31;3.95;;;1.60;;
7001;SDS011;3541;53.230;10.518;2023-09-30T14:52:57;5.63;;;1.92;;
7001;SDS011;3541;53.230;10.518;2023-09-30T14:55:24;5.35;;;2.05;;
7001;SDS011;3541;53.230;10.518;2023-09-30T14:57:50;5.00;;;1.90;;
7001;SDS011;3541;53.230;10.518;2023-09-30T15:00:18;3.58;;;1.67;;
7001;SDS011;3541;53.230;10.518;2023-09-30T15:02:47;4.60;;;1.92;;
7001;SDS011;3541;53.230;10.518;2023-09-30T15:05:15;4.25;;;1.65;;
7001;SDS011;3541;53.230;10.518;2023-09-30T15:07:41;4.47;;;1.92;;
7001;SDS011;3541;53.230;10.518;2023-09-30T15:10:08;3.88;;;1.55;;
7001;SDS011;3541;53.230;10.518;2023-09-30T15:12:35;2.60;;;1.60;;
7001;SDS011;3541;53.230;10.518;2023-09-30T15:15:02;4.10;;;1.63;;
7001;SDS011;3541;53.230;10.518;2023-09-30T15:17:30;5.95;;;1.75;;